KFY1953 SBBE-SBPA
Flight info
| Callsign | KFY1953 |
|---|---|
| Flight time | 3h 48m |
| Altitude | 39000 |
| Route | KODSU UZ26 LEMIS/N0483F410 UZ26 ILKUS/N0485F400 UZ38 GEKON UZ5 BOLIP UZ96 ASDEK |
| Aircraft | A359/H-SDE2E3GHIJ3J4J5LM1ORWXY/LB1D1 |
Departure
| Time | 2026-04-27 18:41 |
|---|---|
| Airport | Val de Cans/Júlio Cezar Ribeiro International Airport (SBBE) |
Arrival
| Time | 2026-04-27 22:30 |
|---|---|
| Airport | Porto Alegre-Salgado Filho International Airport (SBPA) |
| Time | Latitude | Longitude | Altitude | Speed | Heading |
|---|---|---|---|---|---|
| 2026-04-27 18:31 | -1.38917 | -48.47884 | 49 ft | 0 kts | 233° |
| 2026-04-27 18:31 | -1.38915 | -48.47882 | 49 ft | 3 kts | 233° |
| 2026-04-27 18:31 | -1.38901 | -48.47859 | 46 ft | 4 kts | 245° |
| 2026-04-27 18:32 | -1.38892 | -48.47834 | 43 ft | 4 kts | 268° |
| 2026-04-27 18:32 | -1.38896 | -48.47814 | 44 ft | 4 kts | 336° |
| 2026-04-27 18:32 | -1.38906 | -48.47812 | 43 ft | 1 kts | 5° |
| 2026-04-27 18:32 | -1.38907 | -48.47812 | 44 ft | 0 kts | 5° |
| 2026-04-27 18:35 | -1.38905 | -48.47812 | 43 ft | 1 kts | 4° |
| 2026-04-27 18:35 | -1.38902 | -48.47812 | 43 ft | 0 kts | 4° |
| 2026-04-27 18:35 | -1.38887 | -48.47811 | 43 ft | 7 kts | 4° |
| 2026-04-27 18:35 | -1.38818 | -48.47805 | 44 ft | 11 kts | 4° |
| 2026-04-27 18:36 | -1.38743 | -48.47799 | 49 ft | 12 kts | 5° |
| 2026-04-27 18:36 | -1.38679 | -48.47823 | 46 ft | 10 kts | 296° |
| 2026-04-27 18:36 | -1.38678 | -48.47896 | 46 ft | 11 kts | 266° |
| 2026-04-27 18:36 | -1.38677 | -48.47981 | 46 ft | 13 kts | 272° |
| 2026-04-27 18:37 | -1.38675 | -48.48058 | 46 ft | 10 kts | 271° |
| 2026-04-27 18:37 | -1.38674 | -48.48131 | 46 ft | 9 kts | 269° |
| 2026-04-27 18:37 | -1.38680 | -48.48203 | 47 ft | 12 kts | 256° |
| 2026-04-27 18:37 | -1.38723 | -48.48268 | 47 ft | 11 kts | 231° |
| 2026-04-27 18:38 | -1.38731 | -48.48277 | 44 ft | 0 kts | 226° |
| 2026-04-27 18:38 | -1.38732 | -48.48277 | 44 ft | 0 kts | 226° |
| 2026-04-27 18:38 | -1.38767 | -48.48313 | 47 ft | 16 kts | 225° |
| 2026-04-27 18:38 | -1.38794 | -48.48341 | 47 ft | 12 kts | 229° |
| 2026-04-27 18:39 | -1.38813 | -48.48422 | 44 ft | 0 kts | 269° |
| 2026-04-27 18:39 | -1.38798 | -48.48472 | 43 ft | 12 kts | 316° |
| 2026-04-27 18:39 | -1.38738 | -48.48457 | 43 ft | 11 kts | 61° |
| 2026-04-27 18:39 | -1.38717 | -48.48424 | 48 ft | 0 kts | 47° |
| 2026-04-27 18:40 | -1.38689 | -48.48393 | 42 ft | 31 kts | 47° |
| 2026-04-27 18:41 | -1.38508 | -48.48206 | 43 ft | 81 kts | 46° |
| 2026-04-27 18:41 | -1.37715 | -48.47400 | 101 ft | 156 kts | 46° |
| 2026-04-27 18:41 | -1.36986 | -48.46596 | 762 ft | 158 kts | 48° |
| 2026-04-27 18:41 | -1.36582 | -48.45617 | 1446 ft | 157 kts | 98° |
| 2026-04-27 18:42 | -1.37085 | -48.44605 | 1921 ft | 179 kts | 124° |
| 2026-04-27 18:42 | -1.37388 | -48.44288 | 1979 ft | 193 kts | 141° |
| 2026-04-27 18:42 | -1.39280 | -48.43978 | 2469 ft | 233 kts | 193° |
| 2026-04-27 18:42 | -1.40843 | -48.44646 | 3022 ft | 255 kts | 211° |
| 2026-04-27 18:43 | -1.42372 | -48.45607 | 3814 ft | 264 kts | 206° |
| 2026-04-27 18:43 | -1.44714 | -48.46275 | 4847 ft | 268 kts | 187° |
| 2026-04-27 18:43 | -1.45976 | -48.46417 | 5359 ft | 271 kts | 183° |
| 2026-04-27 18:43 | -1.47851 | -48.46480 | 6144 ft | 275 kts | 179° |
| 2026-04-27 18:44 | -1.49794 | -48.46452 | 6939 ft | 278 kts | 177° |
| 2026-04-27 18:44 | -1.51743 | -48.46399 | 7741 ft | 282 kts | 177° |
| 2026-04-27 18:44 | -1.53713 | -48.46352 | 8595 ft | 286 kts | 178° |
| 2026-04-27 18:44 | -1.55687 | -48.46323 | 9433 ft | 290 kts | 178° |
| 2026-04-27 18:45 | -1.57723 | -48.46310 | 10204 ft | 296 kts | 179° |
| 2026-04-27 18:45 | -1.59847 | -48.46309 | 10623 ft | 316 kts | 179° |
| 2026-04-27 18:45 | -1.62120 | -48.46316 | 10960 ft | 335 kts | 179° |
| 2026-04-27 18:45 | -1.64519 | -48.46327 | 11286 ft | 353 kts | 179° |
| 2026-04-27 18:46 | -1.67028 | -48.46341 | 11708 ft | 365 kts | 179° |
| 2026-04-27 18:46 | -1.69592 | -48.46355 | 12258 ft | 371 kts | 179° |
| 2026-04-27 18:46 | -1.72191 | -48.46370 | 12868 ft | 376 kts | 179° |
| 2026-04-27 18:46 | -1.74818 | -48.46384 | 13519 ft | 379 kts | 179° |
| 2026-04-27 18:47 | -1.77474 | -48.46397 | 14063 ft | 383 kts | 179° |
| 2026-04-27 18:47 | -1.80163 | -48.46409 | 14588 ft | 387 kts | 179° |
| 2026-04-27 18:47 | -1.82868 | -48.46421 | 15122 ft | 390 kts | 179° |
| 2026-04-27 18:47 | -1.85594 | -48.46433 | 15650 ft | 393 kts | 179° |
| 2026-04-27 18:48 | -1.88342 | -48.46444 | 16205 ft | 396 kts | 179° |
| 2026-04-27 18:48 | -1.91076 | -48.46456 | 16739 ft | 399 kts | 179° |
| 2026-04-27 18:48 | -1.93862 | -48.46469 | 17252 ft | 402 kts | 179° |
| 2026-04-27 18:48 | -1.96680 | -48.46481 | 17775 ft | 406 kts | 179° |
| 2026-04-27 18:49 | -1.99513 | -48.46494 | 18253 ft | 409 kts | 179° |
| 2026-04-27 18:49 | -2.02367 | -48.46507 | 18672 ft | 412 kts | 179° |
| 2026-04-27 18:49 | -2.05249 | -48.46519 | 19092 ft | 415 kts | 179° |
| 2026-04-27 18:49 | -2.08150 | -48.46532 | 19518 ft | 418 kts | 179° |
| 2026-04-27 18:50 | -2.11065 | -48.46545 | 19958 ft | 421 kts | 179° |
| 2026-04-27 18:50 | -2.14003 | -48.46558 | 20391 ft | 423 kts | 179° |
| 2026-04-27 18:50 | -2.16956 | -48.46571 | 20835 ft | 426 kts | 179° |
| 2026-04-27 18:50 | -2.19936 | -48.46584 | 21277 ft | 429 kts | 179° |
| 2026-04-27 18:51 | -2.22925 | -48.46597 | 21729 ft | 432 kts | 178° |
| 2026-04-27 18:51 | -2.25942 | -48.46611 | 22198 ft | 434 kts | 178° |
| 2026-04-27 18:51 | -2.28968 | -48.46624 | 22648 ft | 437 kts | 178° |
| 2026-04-27 18:51 | -2.32024 | -48.46637 | 23086 ft | 440 kts | 178° |
| 2026-04-27 18:52 | -2.35101 | -48.46623 | 23514 ft | 443 kts | 177° |
| 2026-04-27 18:52 | -2.38198 | -48.46578 | 23876 ft | 446 kts | 177° |
| 2026-04-27 18:52 | -2.41313 | -48.46523 | 24239 ft | 448 kts | 177° |
| 2026-04-27 18:53 | -2.47545 | -48.46416 | 25034 ft | 454 kts | 177° |
| 2026-04-27 18:53 | -2.50714 | -48.46369 | 25448 ft | 456 kts | 177° |
| 2026-04-27 18:53 | -2.53893 | -48.46324 | 25901 ft | 459 kts | 177° |
| 2026-04-27 18:53 | -2.57103 | -48.46281 | 26364 ft | 462 kts | 177° |
| 2026-04-27 18:54 | -2.60333 | -48.46238 | 26798 ft | 465 kts | 177° |
| 2026-04-27 18:54 | -2.63587 | -48.46195 | 27250 ft | 469 kts | 177° |
| 2026-04-27 18:54 | -2.66861 | -48.46152 | 27700 ft | 472 kts | 177° |
| 2026-04-27 18:54 | -2.70157 | -48.46109 | 28160 ft | 475 kts | 177° |
| 2026-04-27 18:55 | -2.73475 | -48.46064 | 28598 ft | 478 kts | 177° |
| 2026-04-27 18:55 | -2.76813 | -48.46020 | 29028 ft | 481 kts | 178° |
| 2026-04-27 18:55 | -2.80162 | -48.45975 | 29457 ft | 484 kts | 178° |
| 2026-04-27 18:55 | -2.83544 | -48.45930 | 29883 ft | 487 kts | 178° |
| 2026-04-27 18:56 | -2.86946 | -48.45885 | 30223 ft | 490 kts | 178° |
| 2026-04-27 18:56 | -2.90327 | -48.45839 | 30522 ft | 494 kts | 178° |
| 2026-04-27 18:56 | -2.93830 | -48.45792 | 30844 ft | 497 kts | 177° |
| 2026-04-27 18:56 | -2.97246 | -48.45747 | 31154 ft | 499 kts | 177° |
| 2026-04-27 18:57 | -3.00728 | -48.45700 | 31463 ft | 501 kts | 177° |
| 2026-04-27 18:57 | -3.04230 | -48.45653 | 31770 ft | 504 kts | 177° |
| 2026-04-27 18:57 | -3.07743 | -48.45606 | 32067 ft | 506 kts | 177° |
| 2026-04-27 18:57 | -3.11279 | -48.45559 | 32357 ft | 508 kts | 177° |
| 2026-04-27 18:58 | -3.14825 | -48.45512 | 32654 ft | 510 kts | 177° |
| 2026-04-27 18:58 | -3.18368 | -48.45465 | 33070 ft | 508 kts | 177° |
| 2026-04-27 18:58 | -3.21907 | -48.45419 | 33508 ft | 507 kts | 176° |
| 2026-04-27 18:58 | -3.25437 | -48.45373 | 33902 ft | 506 kts | 176° |
| 2026-04-27 18:59 | -3.28912 | -48.45327 | 34241 ft | 505 kts | 176° |
| 2026-04-27 18:59 | -3.32424 | -48.45280 | 34553 ft | 505 kts | 176° |
| 2026-04-27 18:59 | -3.35939 | -48.45234 | 34849 ft | 505 kts | 176° |
| 2026-04-27 18:59 | -3.39451 | -48.45187 | 35161 ft | 504 kts | 176° |
| 2026-04-27 19:00 | -3.42960 | -48.45141 | 35463 ft | 504 kts | 177° |
| 2026-04-27 19:00 | -3.46464 | -48.45094 | 35798 ft | 503 kts | 177° |
| 2026-04-27 19:00 | -3.49968 | -48.45047 | 36119 ft | 502 kts | 177° |
| 2026-04-27 19:00 | -3.53464 | -48.45001 | 36405 ft | 502 kts | 177° |
| 2026-04-27 19:01 | -3.56955 | -48.44954 | 36692 ft | 502 kts | 177° |
| 2026-04-27 19:01 | -3.60442 | -48.44906 | 36982 ft | 501 kts | 177° |
| 2026-04-27 19:01 | -3.63936 | -48.44858 | 37268 ft | 501 kts | 177° |
| 2026-04-27 19:01 | -3.67416 | -48.44811 | 37548 ft | 500 kts | 177° |
| 2026-04-27 19:02 | -3.70895 | -48.44764 | 37823 ft | 500 kts | 177° |
| 2026-04-27 19:02 | -3.74381 | -48.44717 | 38023 ft | 501 kts | 178° |
| 2026-04-27 19:02 | -3.77871 | -48.44670 | 38205 ft | 502 kts | 178° |
| 2026-04-27 19:02 | -3.81375 | -48.44622 | 38456 ft | 502 kts | 178° |
| 2026-04-27 19:03 | -3.84866 | -48.44575 | 38697 ft | 502 kts | 178° |
| 2026-04-27 19:03 | -3.88359 | -48.44529 | 38864 ft | 502 kts | 178° |
| 2026-04-27 19:03 | -3.91846 | -48.44482 | 38898 ft | 501 kts | 178° |
| 2026-04-27 19:04 | -3.98779 | -48.44389 | 38898 ft | 500 kts | 178° |
| 2026-04-27 19:04 | -4.05747 | -48.44295 | 38896 ft | 500 kts | 179° |
| 2026-04-27 19:05 | -4.12719 | -48.44201 | 38900 ft | 500 kts | 179° |
| 2026-04-27 19:05 | -4.19680 | -48.44107 | 38901 ft | 500 kts | 179° |
| 2026-04-27 19:06 | -4.26642 | -48.44013 | 38905 ft | 500 kts | 179° |
| 2026-04-27 19:06 | -4.33596 | -48.43919 | 38907 ft | 500 kts | 178° |
| 2026-04-27 19:07 | -4.40555 | -48.43826 | 38902 ft | 499 kts | 178° |
| 2026-04-27 19:07 | -4.47464 | -48.43733 | 38926 ft | 499 kts | 178° |
| 2026-04-27 19:07 | -4.50946 | -48.43686 | 39063 ft | 499 kts | 178° |
| 2026-04-27 19:08 | -4.54417 | -48.43642 | 39272 ft | 499 kts | 179° |
| 2026-04-27 19:08 | -4.57884 | -48.43595 | 39463 ft | 498 kts | 179° |
| 2026-04-27 19:08 | -4.61353 | -48.43547 | 39669 ft | 498 kts | 179° |
| 2026-04-27 19:08 | -4.64815 | -48.43499 | 39800 ft | 498 kts | 179° |
| 2026-04-27 19:09 | -4.68294 | -48.43452 | 39940 ft | 499 kts | 179° |
| 2026-04-27 19:09 | -4.71761 | -48.43405 | 40127 ft | 498 kts | 179° |
| 2026-04-27 19:09 | -4.75218 | -48.43358 | 40414 ft | 495 kts | 179° |
| 2026-04-27 19:10 | -4.82090 | -48.43266 | 40214 ft | 498 kts | 179° |
| 2026-04-27 19:10 | -4.85556 | -48.43219 | 40337 ft | 498 kts | 179° |
| 2026-04-27 19:10 | -4.89018 | -48.43172 | 40569 ft | 496 kts | 179° |
| 2026-04-27 19:10 | -4.91295 | -48.43142 | 40717 ft | 495 kts | 179° |
| 2026-04-27 19:11 | -4.95908 | -48.43079 | 40888 ft | 495 kts | 179° |
| 2026-04-27 19:11 | -5.02792 | -48.42986 | 40906 ft | 494 kts | 179° |
| 2026-04-27 19:12 | -5.09665 | -48.42897 | 40909 ft | 494 kts | 179° |
| 2026-04-27 19:12 | -5.16500 | -48.42807 | 40908 ft | 494 kts | 180° |
| 2026-04-27 19:13 | -5.23380 | -48.42712 | 40905 ft | 495 kts | 180° |
| 2026-04-27 19:13 | -5.30279 | -48.42619 | 40907 ft | 495 kts | 180° |
| 2026-04-27 19:14 | -5.37171 | -48.42526 | 40906 ft | 495 kts | 180° |
| 2026-04-27 19:14 | -5.44069 | -48.42434 | 40907 ft | 495 kts | 180° |
| 2026-04-27 19:15 | -5.50908 | -48.42343 | 40906 ft | 494 kts | 180° |
| 2026-04-27 19:15 | -5.57780 | -48.42249 | 40905 ft | 493 kts | 180° |
| 2026-04-27 19:16 | -5.64643 | -48.42158 | 40904 ft | 493 kts | 180° |
| 2026-04-27 19:16 | -5.71517 | -48.42067 | 40907 ft | 493 kts | 179° |
| 2026-04-27 19:17 | -5.78382 | -48.41976 | 40907 ft | 493 kts | 179° |
| 2026-04-27 19:17 | -5.85260 | -48.41884 | 40905 ft | 494 kts | 179° |
| 2026-04-27 19:18 | -5.92090 | -48.41793 | 40908 ft | 493 kts | 179° |
| 2026-04-27 19:18 | -5.98958 | -48.41701 | 40909 ft | 493 kts | 179° |
| 2026-04-27 19:19 | -6.05835 | -48.41610 | 40908 ft | 494 kts | 179° |
| 2026-04-27 19:19 | -6.12698 | -48.41518 | 40908 ft | 493 kts | 179° |
| 2026-04-27 19:20 | -6.19575 | -48.41426 | 40912 ft | 494 kts | 179° |
| 2026-04-27 19:20 | -6.26445 | -48.41334 | 40911 ft | 493 kts | 179° |
| 2026-04-27 19:21 | -6.33289 | -48.41245 | 40912 ft | 494 kts | 179° |
| 2026-04-27 19:21 | -6.40167 | -48.41155 | 40908 ft | 493 kts | 179° |
| 2026-04-27 19:22 | -6.47043 | -48.41061 | 40910 ft | 494 kts | 179° |
| 2026-04-27 19:22 | -6.53924 | -48.40967 | 40907 ft | 493 kts | 179° |
| 2026-04-27 19:23 | -6.60743 | -48.40876 | 40909 ft | 493 kts | 179° |
| 2026-04-27 19:23 | -6.67638 | -48.40784 | 40908 ft | 492 kts | 179° |
| 2026-04-27 19:24 | -6.74442 | -48.40693 | 40908 ft | 492 kts | 179° |
| 2026-04-27 19:24 | -6.81290 | -48.40602 | 40909 ft | 492 kts | 179° |
| 2026-04-27 19:25 | -6.88142 | -48.40510 | 40907 ft | 491 kts | 180° |
| 2026-04-27 19:25 | -6.94987 | -48.40418 | 40911 ft | 491 kts | 179° |
| 2026-04-27 19:26 | -7.00664 | -48.40312 | 40910 ft | 490 kts | 177° |
| 2026-04-27 19:26 | -7.07495 | -48.40121 | 40911 ft | 491 kts | 177° |
| 2026-04-27 19:27 | -7.14329 | -48.39980 | 40912 ft | 491 kts | 178° |
| 2026-04-27 19:27 | -7.22270 | -48.39866 | 40911 ft | 491 kts | 178° |
| 2026-04-27 19:28 | -7.28004 | -48.39793 | 40913 ft | 491 kts | 178° |
| 2026-04-27 19:28 | -7.34835 | -48.39704 | 40911 ft | 491 kts | 178° |
| 2026-04-27 19:29 | -7.41622 | -48.39614 | 40912 ft | 491 kts | 178° |
| 2026-04-27 19:29 | -7.48442 | -48.39522 | 40913 ft | 489 kts | 178° |
| 2026-04-27 19:30 | -7.55249 | -48.39431 | 40912 ft | 489 kts | 178° |
| 2026-04-27 19:30 | -7.62067 | -48.39339 | 40908 ft | 489 kts | 178° |
| 2026-04-27 19:31 | -7.68831 | -48.39249 | 40912 ft | 489 kts | 178° |
| 2026-04-27 19:31 | -7.75638 | -48.39157 | 40908 ft | 488 kts | 178° |
| 2026-04-27 19:32 | -7.82433 | -48.39066 | 40906 ft | 488 kts | 178° |
| 2026-04-27 19:32 | -7.89223 | -48.38974 | 40906 ft | 488 kts | 178° |
| 2026-04-27 19:33 | -7.96017 | -48.38883 | 40906 ft | 488 kts | 178° |
| 2026-04-27 19:33 | -8.02808 | -48.38792 | 40909 ft | 487 kts | 178° |
| 2026-04-27 19:34 | -8.09547 | -48.38701 | 40908 ft | 486 kts | 178° |
| 2026-04-27 19:34 | -8.16320 | -48.38610 | 40909 ft | 486 kts | 178° |
| 2026-04-27 19:35 | -8.23092 | -48.38514 | 40905 ft | 486 kts | 178° |
| 2026-04-27 19:35 | -8.29858 | -48.38422 | 40905 ft | 486 kts | 178° |
| 2026-04-27 19:36 | -8.36618 | -48.38330 | 40910 ft | 486 kts | 178° |
| 2026-04-27 19:36 | -8.43380 | -48.38239 | 40909 ft | 486 kts | 178° |
| 2026-04-27 19:37 | -8.50147 | -48.38142 | 40907 ft | 486 kts | 178° |
| 2026-04-27 19:37 | -8.56873 | -48.38038 | 40908 ft | 486 kts | 178° |
| 2026-04-27 19:38 | -8.63633 | -48.37936 | 40906 ft | 486 kts | 178° |
| 2026-04-27 19:38 | -8.70401 | -48.37845 | 40906 ft | 486 kts | 178° |
| 2026-04-27 19:39 | -8.77157 | -48.37751 | 40907 ft | 486 kts | 178° |
| 2026-04-27 19:39 | -8.83875 | -48.37659 | 40909 ft | 486 kts | 178° |
| 2026-04-27 19:40 | -8.90643 | -48.37566 | 40908 ft | 486 kts | 178° |
| 2026-04-27 19:40 | -8.97403 | -48.37474 | 40908 ft | 486 kts | 178° |
| 2026-04-27 19:41 | -9.04168 | -48.37381 | 40908 ft | 486 kts | 178° |
| 2026-04-27 19:41 | -9.10942 | -48.37288 | 40908 ft | 486 kts | 178° |
| 2026-04-27 19:42 | -9.17682 | -48.37196 | 40904 ft | 486 kts | 178° |
| 2026-04-27 19:42 | -9.24455 | -48.37103 | 40906 ft | 486 kts | 178° |
| 2026-04-27 19:43 | -9.31223 | -48.37011 | 40908 ft | 486 kts | 178° |
| 2026-04-27 19:43 | -9.37992 | -48.36918 | 40908 ft | 486 kts | 178° |
| 2026-04-27 19:44 | -9.44755 | -48.36825 | 40907 ft | 486 kts | 178° |
| 2026-04-27 19:44 | -9.51471 | -48.36733 | 40911 ft | 486 kts | 178° |
| 2026-04-27 19:45 | -9.58233 | -48.36640 | 40911 ft | 486 kts | 178° |
| 2026-04-27 19:45 | -9.64998 | -48.36552 | 40917 ft | 486 kts | 178° |
| 2026-04-27 19:46 | -9.71771 | -48.36478 | 40915 ft | 486 kts | 178° |
| 2026-04-27 19:46 | -9.78535 | -48.36403 | 40919 ft | 486 kts | 178° |
| 2026-04-27 19:47 | -9.85300 | -48.36321 | 40920 ft | 486 kts | 178° |
| 2026-04-27 19:47 | -9.92063 | -48.36214 | 40919 ft | 486 kts | 178° |
| 2026-04-27 19:48 | -9.98829 | -48.36110 | 40923 ft | 486 kts | 178° |
| 2026-04-27 19:48 | -10.05553 | -48.36010 | 40929 ft | 486 kts | 178° |
| 2026-04-27 19:49 | -10.12324 | -48.35911 | 40934 ft | 487 kts | 178° |
| 2026-04-27 19:49 | -10.19098 | -48.35813 | 40940 ft | 486 kts | 178° |
| 2026-04-27 19:50 | -10.25862 | -48.35714 | 40937 ft | 485 kts | 178° |
| 2026-04-27 19:50 | -10.32617 | -48.35569 | 40939 ft | 485 kts | 176° |
| 2026-04-27 19:51 | -10.39370 | -48.35167 | 40937 ft | 485 kts | 175° |
| 2026-04-27 19:51 | -10.46057 | -48.34724 | 40934 ft | 485 kts | 175° |
| 2026-04-27 19:52 | -10.52862 | -48.34312 | 40935 ft | 487 kts | 175° |
| 2026-04-27 19:52 | -10.59589 | -48.33930 | 40931 ft | 487 kts | 175° |
| 2026-04-27 19:53 | -10.69760 | -48.33361 | 40928 ft | 488 kts | 175° |
| 2026-04-27 19:53 | -10.76546 | -48.32980 | 40927 ft | 487 kts | 175° |
| 2026-04-27 19:54 | -10.83323 | -48.32598 | 40928 ft | 488 kts | 176° |
| 2026-04-27 19:54 | -10.90069 | -48.32218 | 40928 ft | 488 kts | 175° |
| 2026-04-27 19:55 | -10.96860 | -48.31835 | 40923 ft | 488 kts | 176° |
| 2026-04-27 19:55 | -11.03646 | -48.31412 | 40921 ft | 487 kts | 175° |
| 2026-04-27 19:56 | -11.10413 | -48.30953 | 40924 ft | 487 kts | 175° |
| 2026-04-27 19:56 | -11.17175 | -48.30499 | 40925 ft | 487 kts | 175° |
| 2026-04-27 19:57 | -11.23938 | -48.30054 | 40925 ft | 487 kts | 175° |
| 2026-04-27 19:57 | -11.30655 | -48.29620 | 40922 ft | 487 kts | 176° |
| 2026-04-27 19:58 | -11.37437 | -48.29394 | 40926 ft | 487 kts | 178° |
| 2026-04-27 19:58 | -11.44215 | -48.29266 | 40925 ft | 487 kts | 178° |
| 2026-04-27 19:59 | -11.50991 | -48.29113 | 40925 ft | 487 kts | 178° |
| 2026-04-27 19:59 | -11.57772 | -48.28934 | 40925 ft | 487 kts | 177° |
| 2026-04-27 20:00 | -11.64551 | -48.28746 | 40927 ft | 487 kts | 177° |
| 2026-04-27 20:00 | -11.71296 | -48.28562 | 40930 ft | 487 kts | 178° |
| 2026-04-27 20:01 | -11.78081 | -48.28379 | 40928 ft | 487 kts | 177° |
| 2026-04-27 20:01 | -11.84870 | -48.28192 | 40930 ft | 487 kts | 177° |
| 2026-04-27 20:02 | -11.91664 | -48.28006 | 40933 ft | 488 kts | 177° |
| 2026-04-27 20:02 | -11.98401 | -48.27823 | 40933 ft | 488 kts | 177° |
| 2026-04-27 20:03 | -12.05192 | -48.27638 | 40930 ft | 488 kts | 178° |
| 2026-04-27 20:03 | -12.12004 | -48.27453 | 40930 ft | 488 kts | 178° |
| 2026-04-27 20:04 | -12.18797 | -48.27268 | 40935 ft | 488 kts | 178° |
| 2026-04-27 20:04 | -12.24446 | -48.27114 | 40933 ft | 489 kts | 178° |
| 2026-04-27 20:05 | -12.32363 | -48.26898 | 40930 ft | 489 kts | 178° |
| 2026-04-27 20:05 | -12.39166 | -48.26713 | 40930 ft | 489 kts | 178° |
| 2026-04-27 20:06 | -12.45974 | -48.26530 | 40936 ft | 489 kts | 178° |
| 2026-04-27 20:06 | -12.52780 | -48.26347 | 40936 ft | 489 kts | 178° |
| 2026-04-27 20:07 | -12.59585 | -48.26156 | 40933 ft | 489 kts | 178° |
| 2026-04-27 20:07 | -12.66394 | -48.25967 | 40934 ft | 489 kts | 178° |
| 2026-04-27 20:08 | -12.73202 | -48.25779 | 40935 ft | 488 kts | 178° |
| 2026-04-27 20:08 | -12.79955 | -48.25594 | 40939 ft | 488 kts | 178° |
| 2026-04-27 20:09 | -12.86750 | -48.25407 | 40939 ft | 488 kts | 178° |
| 2026-04-27 20:09 | -12.93554 | -48.25220 | 40941 ft | 488 kts | 178° |
| 2026-04-27 20:10 | -13.00343 | -48.25033 | 40939 ft | 488 kts | 178° |
| 2026-04-27 20:10 | -13.07133 | -48.24846 | 40938 ft | 488 kts | 178° |
| 2026-04-27 20:11 | -13.13918 | -48.24659 | 40944 ft | 488 kts | 178° |
| 2026-04-27 20:11 | -13.20706 | -48.24472 | 40944 ft | 488 kts | 178° |
| 2026-04-27 20:12 | -13.26348 | -48.24316 | 40944 ft | 488 kts | 178° |
| 2026-04-27 20:12 | -13.34251 | -48.24098 | 40944 ft | 488 kts | 178° |
| 2026-04-27 20:13 | -13.41040 | -48.23910 | 40944 ft | 488 kts | 178° |
| 2026-04-27 20:13 | -13.47821 | -48.23723 | 40944 ft | 488 kts | 178° |
| 2026-04-27 20:14 | -13.53470 | -48.23567 | 40950 ft | 488 kts | 178° |
| 2026-04-27 20:14 | -13.60307 | -48.23377 | 40950 ft | 488 kts | 178° |
| 2026-04-27 20:15 | -13.67056 | -48.23191 | 40949 ft | 488 kts | 178° |
| 2026-04-27 20:15 | -13.73851 | -48.23002 | 40949 ft | 488 kts | 178° |
| 2026-04-27 20:16 | -13.80637 | -48.22814 | 40947 ft | 488 kts | 178° |
| 2026-04-27 20:16 | -13.87438 | -48.22626 | 40947 ft | 488 kts | 178° |
| 2026-04-27 20:17 | -13.94227 | -48.22438 | 40949 ft | 488 kts | 178° |
| 2026-04-27 20:17 | -14.01020 | -48.22249 | 40952 ft | 488 kts | 178° |
| 2026-04-27 20:18 | -14.07814 | -48.22060 | 40952 ft | 488 kts | 178° |
| 2026-04-27 20:18 | -14.14602 | -48.21872 | 40952 ft | 488 kts | 178° |
| 2026-04-27 20:19 | -14.21353 | -48.21684 | 40952 ft | 488 kts | 178° |
| 2026-04-27 20:19 | -14.28141 | -48.21495 | 40952 ft | 488 kts | 178° |
| 2026-04-27 20:20 | -14.34935 | -48.21306 | 40955 ft | 488 kts | 178° |
| 2026-04-27 20:20 | -14.41725 | -48.21117 | 40958 ft | 488 kts | 178° |
| 2026-04-27 20:21 | -14.48526 | -48.20927 | 40961 ft | 488 kts | 178° |
| 2026-04-27 20:21 | -14.55324 | -48.20738 | 40963 ft | 488 kts | 178° |
| 2026-04-27 20:22 | -14.62085 | -48.20549 | 40967 ft | 489 kts | 178° |
| 2026-04-27 20:22 | -14.68885 | -48.20359 | 40969 ft | 489 kts | 178° |
| 2026-04-27 20:23 | -14.75680 | -48.20169 | 40973 ft | 488 kts | 178° |
| 2026-04-27 20:23 | -14.82486 | -48.19979 | 40975 ft | 489 kts | 178° |
| 2026-04-27 20:24 | -14.89296 | -48.19730 | 40978 ft | 489 kts | 174° |
| 2026-04-27 20:24 | -14.95866 | -48.18152 | 40967 ft | 489 kts | 159° |
| 2026-04-27 20:25 | -15.02238 | -48.15589 | 40973 ft | 492 kts | 157° |
| 2026-04-27 20:25 | -15.08580 | -48.12869 | 40978 ft | 493 kts | 157° |
| 2026-04-27 20:26 | -15.14937 | -48.10143 | 40973 ft | 494 kts | 157° |
| 2026-04-27 20:26 | -15.21503 | -48.08141 | 40975 ft | 493 kts | 172° |
| 2026-04-27 20:27 | -15.28312 | -48.08265 | 40977 ft | 489 kts | 191° |
| 2026-04-27 20:27 | -15.34692 | -48.10581 | 40983 ft | 486 kts | 205° |
| 2026-04-27 20:28 | -15.40715 | -48.13616 | 40979 ft | 484 kts | 207° |
| 2026-04-27 20:28 | -15.45715 | -48.16224 | 40985 ft | 484 kts | 207° |
| 2026-04-27 20:29 | -15.49887 | -48.17970 | 40984 ft | 484 kts | 196° |
| 2026-04-27 20:29 | -15.53144 | -48.18853 | 40979 ft | 484 kts | 193° |
| 2026-04-27 20:29 | -15.59739 | -48.20382 | 40985 ft | 487 kts | 192° |
| 2026-04-27 20:30 | -15.66382 | -48.21821 | 40992 ft | 487 kts | 192° |
| 2026-04-27 20:30 | -15.73014 | -48.23265 | 40998 ft | 487 kts | 192° |
| 2026-04-27 20:31 | -15.79648 | -48.24729 | 41004 ft | 487 kts | 192° |
| 2026-04-27 20:31 | -15.86280 | -48.26201 | 40999 ft | 487 kts | 192° |
| 2026-04-27 20:32 | -15.92866 | -48.27665 | 40988 ft | 487 kts | 192° |
| 2026-04-27 20:32 | -15.99493 | -48.29138 | 40985 ft | 487 kts | 192° |
| 2026-04-27 20:33 | -16.06112 | -48.30611 | 40983 ft | 487 kts | 192° |
| 2026-04-27 20:33 | -16.12739 | -48.32085 | 40982 ft | 486 kts | 192° |
| 2026-04-27 20:34 | -16.19356 | -48.33558 | 40980 ft | 486 kts | 192° |
| 2026-04-27 20:34 | -16.25964 | -48.35031 | 40977 ft | 486 kts | 192° |
| 2026-04-27 20:35 | -16.32550 | -48.36499 | 40979 ft | 486 kts | 192° |
| 2026-04-27 20:35 | -16.39169 | -48.37976 | 40986 ft | 486 kts | 192° |
| 2026-04-27 20:36 | -16.45786 | -48.39454 | 40977 ft | 486 kts | 193° |
| 2026-04-27 20:36 | -16.52404 | -48.40933 | 40976 ft | 485 kts | 192° |
| 2026-04-27 20:37 | -16.59008 | -48.42410 | 40973 ft | 485 kts | 193° |
| 2026-04-27 20:37 | -16.65618 | -48.43889 | 40974 ft | 486 kts | 193° |
| 2026-04-27 20:38 | -16.72301 | -48.44907 | 40971 ft | 486 kts | 186° |
| 2026-04-27 20:38 | -16.79013 | -48.45515 | 40973 ft | 487 kts | 185° |
| 2026-04-27 20:39 | -16.85780 | -48.46065 | 40975 ft | 487 kts | 185° |
| 2026-04-27 20:39 | -16.92549 | -48.46616 | 40971 ft | 488 kts | 185° |
| 2026-04-27 20:40 | -16.99309 | -48.47176 | 40975 ft | 487 kts | 185° |
| 2026-04-27 20:40 | -17.06074 | -48.47742 | 40974 ft | 487 kts | 185° |
| 2026-04-27 20:41 | -17.12831 | -48.48308 | 40971 ft | 487 kts | 185° |
| 2026-04-27 20:41 | -17.19563 | -48.48873 | 40971 ft | 487 kts | 185° |
| 2026-04-27 20:42 | -17.26327 | -48.49440 | 40966 ft | 487 kts | 185° |
| 2026-04-27 20:42 | -17.33093 | -48.50007 | 40960 ft | 487 kts | 185° |
| 2026-04-27 20:43 | -17.39863 | -48.50576 | 40962 ft | 487 kts | 185° |
| 2026-04-27 20:43 | -17.46626 | -48.51144 | 40962 ft | 487 kts | 185° |
| 2026-04-27 20:44 | -17.53387 | -48.51713 | 40960 ft | 487 kts | 185° |
| 2026-04-27 20:44 | -17.60157 | -48.52283 | 40960 ft | 487 kts | 185° |
| 2026-04-27 20:45 | -17.66914 | -48.52852 | 40957 ft | 487 kts | 185° |
| 2026-04-27 20:45 | -17.73625 | -48.53420 | 40960 ft | 487 kts | 185° |
| 2026-04-27 20:46 | -17.80384 | -48.54023 | 40955 ft | 487 kts | 186° |
| 2026-04-27 20:46 | -17.87134 | -48.54635 | 40955 ft | 487 kts | 186° |
| 2026-04-27 20:47 | -17.93885 | -48.55245 | 40957 ft | 487 kts | 186° |
| 2026-04-27 20:47 | -18.00637 | -48.55851 | 40963 ft | 486 kts | 186° |
| 2026-04-27 20:48 | -18.06240 | -48.56355 | 40955 ft | 486 kts | 186° |
| 2026-04-27 20:48 | -18.14121 | -48.57063 | 40955 ft | 486 kts | 186° |
| 2026-04-27 20:49 | -18.20825 | -48.57666 | 40955 ft | 486 kts | 186° |
| 2026-04-27 20:49 | -18.27576 | -48.58274 | 40962 ft | 486 kts | 186° |
| 2026-04-27 20:50 | -18.34313 | -48.58885 | 40957 ft | 485 kts | 186° |
| 2026-04-27 20:50 | -18.41011 | -48.59489 | 40961 ft | 485 kts | 186° |
| 2026-04-27 20:51 | -18.47750 | -48.60094 | 40963 ft | 485 kts | 186° |
| 2026-04-27 20:51 | -18.54486 | -48.60702 | 40965 ft | 485 kts | 186° |
| 2026-04-27 20:52 | -18.61214 | -48.61310 | 40967 ft | 486 kts | 186° |
| 2026-04-27 20:52 | -18.67916 | -48.61916 | 40970 ft | 486 kts | 186° |
| 2026-04-27 20:53 | -18.74660 | -48.62533 | 40968 ft | 486 kts | 186° |
| 2026-04-27 20:53 | -18.81395 | -48.63139 | 40967 ft | 486 kts | 186° |
| 2026-04-27 20:54 | -18.91480 | -48.64051 | 40969 ft | 487 kts | 186° |
| 2026-04-27 20:55 | -18.98277 | -48.64668 | 40968 ft | 487 kts | 186° |
| 2026-04-27 20:55 | -19.04997 | -48.65279 | 40965 ft | 487 kts | 186° |
| 2026-04-27 20:56 | -19.11751 | -48.65892 | 40962 ft | 487 kts | 186° |
| 2026-04-27 20:56 | -19.18514 | -48.66510 | 40964 ft | 487 kts | 186° |
| 2026-04-27 20:57 | -19.25259 | -48.67193 | 40966 ft | 487 kts | 187° |
| 2026-04-27 20:57 | -19.31995 | -48.67910 | 40971 ft | 487 kts | 187° |
| 2026-04-27 20:58 | -19.38736 | -48.68619 | 40965 ft | 486 kts | 187° |
| 2026-04-27 20:58 | -19.45462 | -48.69319 | 40968 ft | 485 kts | 187° |
| 2026-04-27 20:59 | -19.52140 | -48.70012 | 40964 ft | 485 kts | 187° |
| 2026-04-27 20:59 | -19.57771 | -48.70597 | 40964 ft | 485 kts | 187° |
| 2026-04-27 21:00 | -19.65595 | -48.71411 | 40965 ft | 485 kts | 187° |
| 2026-04-27 21:00 | -19.71184 | -48.71992 | 40969 ft | 486 kts | 187° |
| 2026-04-27 21:01 | -19.77917 | -48.72694 | 40965 ft | 485 kts | 187° |
| 2026-04-27 21:01 | -19.85774 | -48.73513 | 40966 ft | 485 kts | 187° |
| 2026-04-27 21:02 | -19.91366 | -48.74096 | 40962 ft | 485 kts | 187° |
| 2026-04-27 21:02 | -19.98080 | -48.74798 | 40960 ft | 484 kts | 187° |
| 2026-04-27 21:03 | -20.04788 | -48.75499 | 40963 ft | 484 kts | 187° |
| 2026-04-27 21:03 | -20.11501 | -48.76202 | 40969 ft | 484 kts | 187° |
| 2026-04-27 21:04 | -20.18219 | -48.76906 | 40968 ft | 486 kts | 187° |
| 2026-04-27 21:04 | -20.24952 | -48.77612 | 40966 ft | 486 kts | 187° |
| 2026-04-27 21:05 | -20.31685 | -48.78322 | 40970 ft | 486 kts | 187° |
| 2026-04-27 21:05 | -20.38384 | -48.78949 | 40967 ft | 487 kts | 185° |
| 2026-04-27 21:06 | -20.45148 | -48.79524 | 40969 ft | 489 kts | 185° |
| 2026-04-27 21:06 | -20.51923 | -48.80178 | 40966 ft | 489 kts | 186° |
| 2026-04-27 21:07 | -20.58692 | -48.80868 | 40969 ft | 488 kts | 183° |
| 2026-04-27 21:07 | -20.65477 | -48.81443 | 40975 ft | 489 kts | 184° |
| 2026-04-27 21:08 | -20.72246 | -48.82143 | 40987 ft | 489 kts | 186° |
| 2026-04-27 21:08 | -20.78985 | -48.83232 | 40991 ft | 488 kts | 188° |
| 2026-04-27 21:09 | -20.85640 | -48.84370 | 40974 ft | 487 kts | 188° |
| 2026-04-27 21:09 | -20.92346 | -48.85472 | 40985 ft | 488 kts | 188° |
| 2026-04-27 21:10 | -20.99073 | -48.86550 | 40988 ft | 489 kts | 187° |
| 2026-04-27 21:10 | -21.05820 | -48.87622 | 40988 ft | 489 kts | 187° |
| 2026-04-27 21:11 | -21.12555 | -48.88695 | 40992 ft | 489 kts | 188° |
| 2026-04-27 21:11 | -21.19241 | -48.89762 | 40995 ft | 489 kts | 188° |
| 2026-04-27 21:12 | -21.25981 | -48.90845 | 40999 ft | 489 kts | 188° |
| 2026-04-27 21:12 | -21.32727 | -48.91924 | 40995 ft | 489 kts | 188° |
| 2026-04-27 21:13 | -21.39426 | -48.92995 | 40993 ft | 489 kts | 188° |
| 2026-04-27 21:13 | -21.46172 | -48.94077 | 40996 ft | 490 kts | 188° |
| 2026-04-27 21:14 | -21.52930 | -48.95162 | 40994 ft | 490 kts | 188° |
| 2026-04-27 21:14 | -21.59684 | -48.96247 | 40998 ft | 490 kts | 188° |
| 2026-04-27 21:15 | -21.66431 | -48.97333 | 40993 ft | 490 kts | 188° |
| 2026-04-27 21:15 | -21.73060 | -48.98796 | 41002 ft | 489 kts | 193° |
| 2026-04-27 21:16 | -21.79675 | -49.00554 | 40999 ft | 490 kts | 193° |
| 2026-04-27 21:16 | -21.86304 | -49.02270 | 40999 ft | 489 kts | 193° |
| 2026-04-27 21:17 | -21.92945 | -49.03923 | 40998 ft | 490 kts | 192° |
| 2026-04-27 21:17 | -21.99605 | -49.05562 | 41001 ft | 491 kts | 193° |
| 2026-04-27 21:18 | -22.06271 | -49.07202 | 41014 ft | 492 kts | 193° |
| 2026-04-27 21:18 | -22.12948 | -49.08846 | 41022 ft | 492 kts | 193° |
| 2026-04-27 21:19 | -22.19586 | -49.10486 | 41036 ft | 493 kts | 193° |
| 2026-04-27 21:19 | -22.26295 | -49.12148 | 41050 ft | 494 kts | 193° |
| 2026-04-27 21:20 | -22.36340 | -49.14637 | 41048 ft | 494 kts | 193° |
| 2026-04-27 21:20 | -22.43030 | -49.16336 | 41040 ft | 493 kts | 194° |
| 2026-04-27 21:21 | -22.49672 | -49.18236 | 41044 ft | 493 kts | 195° |
| 2026-04-27 21:21 | -22.56258 | -49.20164 | 41019 ft | 493 kts | 195° |
| 2026-04-27 21:22 | -22.62911 | -49.22054 | 41017 ft | 493 kts | 194° |
| 2026-04-27 21:22 | -22.69579 | -49.23870 | 41014 ft | 494 kts | 194° |
| 2026-04-27 21:23 | -22.76258 | -49.25685 | 41028 ft | 494 kts | 194° |
| 2026-04-27 21:23 | -22.82937 | -49.27515 | 41030 ft | 495 kts | 194° |
| 2026-04-27 21:24 | -22.89607 | -49.29350 | 41027 ft | 495 kts | 194° |
| 2026-04-27 21:24 | -22.96241 | -49.31183 | 41019 ft | 495 kts | 195° |
| 2026-04-27 21:25 | -23.02924 | -49.33019 | 41028 ft | 495 kts | 195° |
| 2026-04-27 21:25 | -23.09598 | -49.34851 | 41028 ft | 494 kts | 195° |
| 2026-04-27 21:26 | -23.16267 | -49.36688 | 41032 ft | 494 kts | 195° |
| 2026-04-27 21:26 | -23.22937 | -49.38528 | 41052 ft | 494 kts | 194° |
| 2026-04-27 21:27 | -23.29648 | -49.40203 | 41037 ft | 495 kts | 193° |
| 2026-04-27 21:27 | -23.36384 | -49.41794 | 41030 ft | 495 kts | 193° |
| 2026-04-27 21:28 | -23.43107 | -49.43406 | 41032 ft | 495 kts | 193° |
| 2026-04-27 21:28 | -23.49754 | -49.45309 | 41038 ft | 493 kts | 197° |
| 2026-04-27 21:29 | -23.56274 | -49.47441 | 41050 ft | 492 kts | 198° |
| 2026-04-27 21:29 | -23.62842 | -49.49570 | 41034 ft | 492 kts | 197° |
| 2026-04-27 21:30 | -23.69454 | -49.51558 | 41029 ft | 493 kts | 195° |
| 2026-04-27 21:30 | -23.76124 | -49.53376 | 41035 ft | 495 kts | 195° |
| 2026-04-27 21:31 | -23.82814 | -49.55203 | 41040 ft | 496 kts | 195° |
| 2026-04-27 21:31 | -23.89504 | -49.57053 | 41041 ft | 496 kts | 195° |
| 2026-04-27 21:32 | -23.96193 | -49.58922 | 41039 ft | 496 kts | 195° |
| 2026-04-27 21:32 | -24.02869 | -49.60795 | 41046 ft | 496 kts | 195° |
| 2026-04-27 21:33 | -24.09561 | -49.62671 | 41070 ft | 496 kts | 196° |
| 2026-04-27 21:33 | -24.16283 | -49.64429 | 41053 ft | 497 kts | 195° |
| 2026-04-27 21:34 | -24.22981 | -49.66117 | 41058 ft | 497 kts | 195° |
| 2026-04-27 21:34 | -24.29733 | -49.67836 | 41061 ft | 497 kts | 195° |
| 2026-04-27 21:35 | -24.36476 | -49.69571 | 41069 ft | 497 kts | 195° |
| 2026-04-27 21:35 | -24.43218 | -49.71317 | 41067 ft | 498 kts | 195° |
| 2026-04-27 21:36 | -24.49931 | -49.73160 | 41067 ft | 497 kts | 198° |
| 2026-04-27 21:36 | -24.56577 | -49.75253 | 41071 ft | 495 kts | 199° |
| 2026-04-27 21:37 | -24.63193 | -49.77357 | 41077 ft | 495 kts | 199° |
| 2026-04-27 21:37 | -24.69773 | -49.79413 | 41064 ft | 494 kts | 199° |
| 2026-04-27 21:38 | -24.76400 | -49.81464 | 41067 ft | 494 kts | 198° |
| 2026-04-27 21:38 | -24.83013 | -49.83566 | 41061 ft | 492 kts | 201° |
| 2026-04-27 21:39 | -24.89471 | -49.86031 | 41066 ft | 490 kts | 202° |
| 2026-04-27 21:39 | -24.95897 | -49.88578 | 41067 ft | 490 kts | 202° |
| 2026-04-27 21:40 | -25.02286 | -49.91058 | 41064 ft | 490 kts | 202° |
| 2026-04-27 21:40 | -25.08727 | -49.93521 | 41065 ft | 490 kts | 202° |
| 2026-04-27 21:41 | -25.15180 | -49.95979 | 41064 ft | 490 kts | 202° |
| 2026-04-27 21:41 | -25.21633 | -49.98442 | 41069 ft | 490 kts | 203° |
| 2026-04-27 21:42 | -25.28076 | -50.00911 | 41065 ft | 489 kts | 203° |
| 2026-04-27 21:42 | -25.34522 | -50.03389 | 41059 ft | 489 kts | 203° |
| 2026-04-27 21:43 | -25.40919 | -50.05842 | 41080 ft | 489 kts | 203° |
| 2026-04-27 21:43 | -25.47353 | -50.08308 | 41072 ft | 489 kts | 204° |
| 2026-04-27 21:44 | -25.53783 | -50.10779 | 41075 ft | 489 kts | 204° |
| 2026-04-27 21:44 | -25.59142 | -50.12842 | 41070 ft | 489 kts | 204° |
| 2026-04-27 21:45 | -25.66657 | -50.15742 | 41064 ft | 490 kts | 204° |
| 2026-04-27 21:45 | -25.72016 | -50.17812 | 41076 ft | 490 kts | 204° |
| 2026-04-27 21:46 | -25.78449 | -50.20300 | 41073 ft | 490 kts | 204° |
| 2026-04-27 21:46 | -25.84912 | -50.22805 | 41064 ft | 492 kts | 204° |
| 2026-04-27 21:47 | -25.91382 | -50.25314 | 41065 ft | 492 kts | 204° |
| 2026-04-27 21:47 | -25.97851 | -50.27818 | 41088 ft | 492 kts | 204° |
| 2026-04-27 21:48 | -26.04291 | -50.30318 | 41064 ft | 493 kts | 205° |
| 2026-04-27 21:48 | -26.10778 | -50.32839 | 41060 ft | 494 kts | 205° |
| 2026-04-27 21:49 | -26.17265 | -50.35362 | 41064 ft | 494 kts | 205° |
| 2026-04-27 21:49 | -26.23754 | -50.37889 | 41063 ft | 494 kts | 205° |
| 2026-04-27 21:50 | -26.30245 | -50.40420 | 41069 ft | 494 kts | 205° |
| 2026-04-27 21:50 | -26.36736 | -50.42955 | 41080 ft | 494 kts | 205° |
| 2026-04-27 21:51 | -26.43227 | -50.45493 | 41078 ft | 494 kts | 205° |
| 2026-04-27 21:51 | -26.49711 | -50.48032 | 41087 ft | 494 kts | 205° |
| 2026-04-27 21:52 | -26.56195 | -50.50580 | 41090 ft | 494 kts | 206° |
| 2026-04-27 21:52 | -26.62682 | -50.53123 | 41097 ft | 494 kts | 206° |
| 2026-04-27 21:53 | -26.69165 | -50.55669 | 41106 ft | 494 kts | 206° |
| 2026-04-27 21:53 | -26.75650 | -50.58214 | 41107 ft | 494 kts | 205° |
| 2026-04-27 21:54 | -26.82125 | -50.60761 | 41108 ft | 492 kts | 206° |
| 2026-04-27 21:54 | -26.88591 | -50.63308 | 41106 ft | 492 kts | 206° |
| 2026-04-27 21:55 | -26.95004 | -50.65841 | 41109 ft | 491 kts | 206° |
| 2026-04-27 21:55 | -27.01453 | -50.68390 | 41099 ft | 490 kts | 206° |
| 2026-04-27 21:56 | -27.11097 | -50.72208 | 41099 ft | 488 kts | 206° |
| 2026-04-27 21:57 | -27.17461 | -50.74731 | 41099 ft | 487 kts | 206° |
| 2026-04-27 21:57 | -27.23849 | -50.77271 | 41100 ft | 487 kts | 206° |
| 2026-04-27 21:58 | -27.30283 | -50.79830 | 41100 ft | 487 kts | 206° |
| 2026-04-27 21:58 | -27.36633 | -50.82353 | 41098 ft | 486 kts | 206° |
| 2026-04-27 21:59 | -27.43008 | -50.84896 | 41098 ft | 485 kts | 207° |
| 2026-04-27 21:59 | -27.49362 | -50.87434 | 41098 ft | 485 kts | 206° |
| 2026-04-27 22:00 | -27.55754 | -50.89913 | 41098 ft | 485 kts | 204° |
| 2026-04-27 22:00 | -27.62169 | -50.92263 | 41099 ft | 483 kts | 201° |
| 2026-04-27 22:01 | -27.68543 | -50.94532 | 41097 ft | 477 kts | 200° |
| 2026-04-27 22:01 | -27.74795 | -50.96841 | 41098 ft | 468 kts | 199° |
| 2026-04-27 22:02 | -27.80903 | -50.99148 | 41099 ft | 457 kts | 200° |
| 2026-04-27 22:02 | -27.86802 | -51.01393 | 41136 ft | 443 kts | 199° |
| 2026-04-27 22:03 | -27.92534 | -51.03656 | 41109 ft | 428 kts | 201° |
| 2026-04-27 22:03 | -27.98049 | -51.05940 | 41111 ft | 414 kts | 202° |
| 2026-04-27 22:03 | -28.00743 | -51.07072 | 40991 ft | 410 kts | 219° |
| 2026-04-27 22:04 | -28.03281 | -51.08438 | 40943 ft | 404 kts | 223° |
| 2026-04-27 22:04 | -28.05773 | -51.09976 | 40794 ft | 412 kts | 223° |
| 2026-04-27 22:04 | -28.08357 | -51.11502 | 40592 ft | 427 kts | 220° |
| 2026-04-27 22:04 | -28.11101 | -51.12948 | 40382 ft | 443 kts | 217° |
| 2026-04-27 22:05 | -28.14000 | -51.14305 | 40240 ft | 458 kts | 214° |
| 2026-04-27 22:05 | -28.17028 | -51.15598 | 40103 ft | 470 kts | 213° |
| 2026-04-27 22:05 | -28.20109 | -51.16844 | 39976 ft | 479 kts | 212° |
| 2026-04-27 22:05 | -28.23265 | -51.18088 | 39770 ft | 481 kts | 212° |
| 2026-04-27 22:06 | -28.26444 | -51.19332 | 39546 ft | 481 kts | 212° |
| 2026-04-27 22:06 | -28.29607 | -51.20578 | 39309 ft | 481 kts | 212° |
| 2026-04-27 22:06 | -28.32769 | -51.21839 | 39075 ft | 481 kts | 212° |
| 2026-04-27 22:06 | -28.35930 | -51.23110 | 38854 ft | 482 kts | 212° |
| 2026-04-27 22:07 | -28.39091 | -51.24367 | 38611 ft | 483 kts | 210° |
| 2026-04-27 22:07 | -28.42284 | -51.25598 | 38283 ft | 482 kts | 210° |
| 2026-04-27 22:07 | -28.45440 | -51.26813 | 37660 ft | 478 kts | 211° |
| 2026-04-27 22:07 | -28.48575 | -51.28038 | 37000 ft | 475 kts | 211° |
| 2026-04-27 22:08 | -28.51698 | -51.29282 | 36317 ft | 473 kts | 211° |
| 2026-04-27 22:08 | -28.54810 | -51.30523 | 35624 ft | 476 kts | 210° |
| 2026-04-27 22:08 | -28.58068 | -51.31359 | 34856 ft | 499 kts | 198° |
| 2026-04-27 22:08 | -28.61655 | -51.31351 | 33922 ft | 533 kts | 182° |
| 2026-04-27 22:09 | -28.65335 | -51.30243 | 32906 ft | 562 kts | 166° |
| 2026-04-27 22:09 | -28.68956 | -51.28395 | 31814 ft | 574 kts | 162° |
| 2026-04-27 22:09 | -28.72576 | -51.26401 | 30734 ft | 580 kts | 162° |
| 2026-04-27 22:09 | -28.76220 | -51.24402 | 29646 ft | 582 kts | 162° |
| 2026-04-27 22:10 | -28.79867 | -51.22423 | 28695 ft | 579 kts | 162° |
| 2026-04-27 22:10 | -28.82322 | -51.21097 | 28180 ft | 574 kts | 162° |
| 2026-04-27 22:10 | -28.87071 | -51.18540 | 27188 ft | 566 kts | 162° |
| 2026-04-27 22:10 | -28.90622 | -51.16634 | 26515 ft | 558 kts | 162° |
| 2026-04-27 22:11 | -28.94107 | -51.14762 | 25939 ft | 550 kts | 162° |
| 2026-04-27 22:11 | -28.97547 | -51.12915 | 25318 ft | 542 kts | 162° |
| 2026-04-27 22:11 | -29.00940 | -51.11093 | 24746 ft | 534 kts | 162° |
| 2026-04-27 22:11 | -29.04280 | -51.09297 | 24164 ft | 527 kts | 162° |
| 2026-04-27 22:12 | -29.07565 | -51.07532 | 23612 ft | 512 kts | 161° |
| 2026-04-27 22:12 | -29.10725 | -51.05819 | 22406 ft | 493 kts | 161° |
| 2026-04-27 22:12 | -29.13803 | -51.04158 | 20835 ft | 484 kts | 161° |
| 2026-04-27 22:12 | -29.16812 | -51.02541 | 19636 ft | 470 kts | 161° |
| 2026-04-27 22:13 | -29.19691 | -51.00985 | 18890 ft | 445 kts | 161° |
| 2026-04-27 22:13 | -29.22427 | -50.99499 | 18107 ft | 424 kts | 159° |
| 2026-04-27 22:13 | -29.25016 | -50.98044 | 17370 ft | 411 kts | 159° |
| 2026-04-27 22:13 | -29.27594 | -50.96605 | 16673 ft | 413 kts | 159° |
| 2026-04-27 22:14 | -29.30183 | -50.95186 | 15979 ft | 417 kts | 160° |
| 2026-04-27 22:14 | -29.32797 | -50.93765 | 15272 ft | 415 kts | 159° |
| 2026-04-27 22:14 | -29.35417 | -50.92349 | 14547 ft | 415 kts | 159° |
| 2026-04-27 22:14 | -29.38025 | -50.90941 | 13793 ft | 414 kts | 159° |
| 2026-04-27 22:15 | -29.40631 | -50.89536 | 13030 ft | 412 kts | 159° |
| 2026-04-27 22:15 | -29.43221 | -50.88141 | 12288 ft | 407 kts | 159° |
| 2026-04-27 22:15 | -29.45761 | -50.86770 | 11571 ft | 401 kts | 158° |
| 2026-04-27 22:15 | -29.48272 | -50.85409 | 10888 ft | 396 kts | 158° |
| 2026-04-27 22:16 | -29.50702 | -50.84087 | 10676 ft | 377 kts | 158° |
| 2026-04-27 22:16 | -29.53002 | -50.82817 | 10557 ft | 357 kts | 157° |
| 2026-04-27 22:16 | -29.55179 | -50.81607 | 10431 ft | 339 kts | 157° |
| 2026-04-27 22:16 | -29.57217 | -50.80476 | 10302 ft | 321 kts | 157° |
| 2026-04-27 22:17 | -29.59191 | -50.79392 | 10179 ft | 306 kts | 158° |
| 2026-04-27 22:17 | -29.61077 | -50.78368 | 10075 ft | 294 kts | 158° |
| 2026-04-27 22:17 | -29.62897 | -50.77384 | 9896 ft | 288 kts | 159° |
| 2026-04-27 22:17 | -29.64750 | -50.76387 | 9568 ft | 297 kts | 158° |
| 2026-04-27 22:18 | -29.66628 | -50.75366 | 9218 ft | 298 kts | 158° |
| 2026-04-27 22:18 | -29.68494 | -50.74346 | 8794 ft | 296 kts | 157° |
| 2026-04-27 22:18 | -29.70343 | -50.73423 | 8414 ft | 290 kts | 165° |
| 2026-04-27 22:18 | -29.72295 | -50.73158 | 8093 ft | 278 kts | 189° |
| 2026-04-27 22:19 | -29.74089 | -50.73813 | 7835 ft | 267 kts | 211° |
| 2026-04-27 22:19 | -29.75528 | -50.75122 | 7557 ft | 262 kts | 224° |
| 2026-04-27 22:19 | -29.76821 | -50.76586 | 7453 ft | 258 kts | 224° |
| 2026-04-27 22:19 | -29.78082 | -50.78026 | 7142 ft | 251 kts | 224° |
| 2026-04-27 22:20 | -29.79273 | -50.79397 | 6873 ft | 235 kts | 224° |
| 2026-04-27 22:20 | -29.80409 | -50.80707 | 6689 ft | 226 kts | 224° |
| 2026-04-27 22:20 | -29.81498 | -50.81961 | 6503 ft | 216 kts | 224° |
| 2026-04-27 22:20 | -29.82524 | -50.83142 | 6253 ft | 199 kts | 224° |
| 2026-04-27 22:21 | -29.83474 | -50.84241 | 5742 ft | 191 kts | 223° |
| 2026-04-27 22:21 | -29.84372 | -50.85276 | 5432 ft | 178 kts | 223° |
| 2026-04-27 22:21 | -29.85222 | -50.86257 | 5263 ft | 175 kts | 223° |
| 2026-04-27 22:21 | -29.86103 | -50.87266 | 5215 ft | 180 kts | 223° |
| 2026-04-27 22:22 | -29.86976 | -50.88258 | 5073 ft | 171 kts | 222° |
| 2026-04-27 22:22 | -29.87804 | -50.89207 | 4682 ft | 166 kts | 223° |
| 2026-04-27 22:22 | -29.88595 | -50.90121 | 4419 ft | 156 kts | 223° |
| 2026-04-27 22:22 | -29.89409 | -50.91055 | 4391 ft | 173 kts | 222° |
| 2026-04-27 22:23 | -29.90308 | -50.92007 | 4352 ft | 174 kts | 218° |
| 2026-04-27 22:23 | -29.91289 | -50.92716 | 4107 ft | 162 kts | 205° |
| 2026-04-27 22:23 | -29.92331 | -50.93219 | 3663 ft | 162 kts | 201° |
| 2026-04-27 22:23 | -29.93378 | -50.93669 | 3270 ft | 158 kts | 198° |
| 2026-04-27 22:24 | -29.94389 | -50.94082 | 2933 ft | 153 kts | 200° |
| 2026-04-27 22:24 | -29.95394 | -50.94512 | 2847 ft | 156 kts | 201° |
| 2026-04-27 22:24 | -29.96409 | -50.94957 | 2786 ft | 156 kts | 201° |
| 2026-04-27 22:24 | -29.97423 | -50.95412 | 2712 ft | 156 kts | 202° |
| 2026-04-27 22:25 | -29.98419 | -50.95897 | 2618 ft | 154 kts | 208° |
| 2026-04-27 22:25 | -29.99264 | -50.96633 | 2557 ft | 151 kts | 226° |
| 2026-04-27 22:25 | -29.99711 | -50.97694 | 2522 ft | 147 kts | 254° |
| 2026-04-27 22:25 | -29.99818 | -50.98838 | 2449 ft | 139 kts | 262° |
| 2026-04-27 22:26 | -29.99830 | -50.99925 | 2374 ft | 133 kts | 265° |
| 2026-04-27 22:26 | -29.99818 | -51.00987 | 2306 ft | 132 kts | 264° |
| 2026-04-27 22:26 | -29.99810 | -51.02051 | 2224 ft | 133 kts | 265° |
| 2026-04-27 22:26 | -29.99775 | -51.03119 | 2046 ft | 133 kts | 268° |
| 2026-04-27 22:27 | -29.99744 | -51.04174 | 1872 ft | 131 kts | 265° |
| 2026-04-27 22:27 | -29.99725 | -51.05215 | 1693 ft | 131 kts | 265° |
| 2026-04-27 22:27 | -29.99705 | -51.06278 | 1502 ft | 132 kts | 266° |
| 2026-04-27 22:27 | -29.99681 | -51.07344 | 1344 ft | 134 kts | 266° |
| 2026-04-27 22:28 | -29.99656 | -51.08422 | 1163 ft | 135 kts | 267° |
| 2026-04-27 22:28 | -29.99631 | -51.09508 | 993 ft | 136 kts | 265° |
| 2026-04-27 22:28 | -29.99616 | -51.10238 | 851 ft | 137 kts | 268° |
| 2026-04-27 22:28 | -29.99591 | -51.11344 | 666 ft | 140 kts | 267° |
| 2026-04-27 22:29 | -29.99565 | -51.12473 | 502 ft | 141 kts | 265° |
| 2026-04-27 22:29 | -29.99542 | -51.13572 | 316 ft | 135 kts | 266° |
| 2026-04-27 22:29 | -29.99519 | -51.14649 | 134 ft | 134 kts | 266° |
| 2026-04-27 22:29 | -29.99506 | -51.15708 | 27 ft | 116 kts | 272° |
| 2026-04-27 22:30 | -29.99483 | -51.16453 | 26 ft | 77 kts | 271° |
| 2026-04-27 22:30 | -29.99473 | -51.16759 | 28 ft | 26 kts | 271° |
| 2026-04-27 22:30 | -29.99468 | -51.16969 | 25 ft | 24 kts | 271° |
| 2026-04-27 22:30 | -29.99465 | -51.17112 | 24 ft | 17 kts | 271° |
| 2026-04-27 22:31 | -29.99461 | -51.17260 | 28 ft | 20 kts | 271° |
| 2026-04-27 22:31 | -29.99457 | -51.17428 | 25 ft | 22 kts | 271° |
| 2026-04-27 22:31 | -29.99454 | -51.17563 | 27 ft | 11 kts | 271° |
| 2026-04-27 22:31 | -29.99449 | -51.17644 | 28 ft | 0 kts | 279° |
| 2026-04-27 22:32 | -29.99412 | -51.17689 | 28 ft | 12 kts | 334° |
| 2026-04-27 22:32 | -29.99316 | -51.17702 | 28 ft | 16 kts | 360° |
| 2026-04-27 22:32 | -29.99212 | -51.17708 | 30 ft | 13 kts | 346° |
| 2026-04-27 22:33 | -29.99174 | -51.17771 | 29 ft | 10 kts | 290° |
| 2026-04-27 22:33 | -29.99152 | -51.17855 | 28 ft | 12 kts | 290° |
| 2026-04-27 22:33 | -29.99119 | -51.17954 | 29 ft | 16 kts | 277° |
| 2026-04-27 22:33 | -29.99090 | -51.18047 | 27 ft | 14 kts | 296° |
| 2026-04-27 22:34 | -29.99078 | -51.18074 | 28 ft | 4 kts | 297° |
| 2026-04-27 22:34 | -29.99074 | -51.18083 | 29 ft | 0 kts | 297° |